sensor_id;sensor_type;location;lat;lon;timestamp;pressure;altitude;pressure_sealevel;temperature;humidity
55490;BME280;44029;52.956;4.772;2023-06-14T00:01:37;101789.94;;;20.76;100.00
55490;BME280;44029;52.956;4.772;2023-06-14T00:04:03;101796.75;;;20.64;100.00
55490;BME280;44029;52.956;4.772;2023-06-14T00:06:30;101797.19;;;20.77;100.00
55490;BME280;44029;52.956;4.772;2023-06-14T00:08:55;101799.28;;;20.61;100.00
55490;BME280;44029;52.956;4.772;2023-06-14T00:11:21;101802.50;;;20.44;100.00
55490;BME280;44029;52.956;4.772;2023-06-14T00:13:46;101801.41;;;20.69;100.00
55490;BME280;44029;52.956;4.772;2023-06-14T00:16:12;101800.69;;;20.29;100.00
55490;BME280;44029;52.956;4.772;2023-06-14T00:18:37;101795.25;;;20.43;100.00
55490;BME280;44029;52.956;4.772;2023-06-14T00:21:03;101797.13;;;20.53;100.00
55490;BME280;44029;52.956;4.772;2023-06-14T00:23:29;101802.38;;;20.54;100.00
55490;BME280;44029;52.956;4.772;2023-06-14T00:25:55;101800.72;;;20.53;100.00
55490;BME280;44029;52.956;4.772;2023-06-14T00:28:20;101803.91;;;20.41;100.00
55490;BME280;44029;52.956;4.772;2023-06-14T00:30:45;101802.06;;;20.32;100.00
55490;BME280;44029;52.956;4.772;2023-06-14T00:33:12;101808.06;;;20.15;100.00
55490;BME280;44029;52.956;4.772;2023-06-14T00:35:37;101798.53;;;20.21;100.00
55490;BME280;44029;52.956;4.772;2023-06-14T00:38:02;101793.31;;;20.14;100.00
55490;BME280;44029;52.956;4.772;2023-06-14T00:40:28;101782.78;;;20.11;100.00
55490;BME280;44029;52.956;4.772;2023-06-14T00:42:53;101796.22;;;19.99;100.00
55490;BME280;44029;52.956;4.772;2023-06-14T00:45:19;101803.81;;;20.22;100.00
55490;BME280;44029;52.956;4.772;2023-06-14T00:47:45;101803.28;;;20.20;100.00
55490;BME280;44029;52.956;4.772;2023-06-14T00:50:11;101810.59;;;20.11;100.00
55490;BME280;44029;52.956;4.772;2023-06-14T00:52:38;101806.63;;;20.17;100.00
55490;BME280;44029;52.956;4.772;2023-06-14T00:55:04;101799.38;;;20.21;100.00
55490;BME280;44029;52.956;4.772;2023-06-14T00:57:30;101809.91;;;20.24;100.00
55490;BME280;44029;52.956;4.772;2023-06-14T00:59:56;101803.28;;;20.20;100.00
55490;BME280;44029;52.956;4.772;2023-06-14T01:02:21;101805.69;;;19.98;100.00
55490;BME280;44029;52.956;4.772;2023-06-14T01:04:48;101803.91;;;20.12;100.00
55490;BME280;44029;52.956;4.772;2023-06-14T01:13:07;101799.75;;;20.09;100.00
55490;BME280;44029;52.956;4.772;2023-06-14T01:15:33;101801.31;;;19.92;100.00
55490;BME280;44029;52.956;4.772;2023-06-14T01:17:59;101795.16;;;19.89;100.00
55490;BME280;44029;52.956;4.772;2023-06-14T01:20:29;101797.13;;;19.89;100.00
55490;BME280;44029;52.956;4.772;2023-06-14T01:22:55;101801.09;;;19.83;100.00
55490;BME280;44029;52.956;4.772;2023-06-14T01:25:21;101799.06;;;19.94;100.00
55490;BME280;44029;52.956;4.772;2023-06-14T01:27:53;101801.31;;;20.21;100.00
55490;BME280;44029;52.956;4.772;2023-06-14T01:30:20;101801.63;;;19.85;100.00
55490;BME280;44029;52.956;4.772;2023-06-14T01:32:47;101804.47;;;19.75;100.00
55490;BME280;44029;52.956;4.772;2023-06-14T01:35:13;101798.06;;;19.74;100.00
55490;BME280;44029;52.956;4.772;2023-06-14T01:37:40;101801.88;;;19.88;100.00
55490;BME280;44029;52.956;4.772;2023-06-14T01:40:08;101791.16;;;20.06;100.00
55490;BME280;44029;52.956;4.772;2023-06-14T01:42:36;101796.88;;;19.85;100.00
55490;BME280;44029;52.956;4.772;2023-06-14T01:45:04;101796.97;;;19.75;100.00
55490;BME280;44029;52.956;4.772;2023-06-14T01:47:31;101804.72;;;19.78;100.00
55490;BME280;44029;52.956;4.772;2023-06-14T01:49:57;101809.16;;;19.79;100.00
55490;BME280;44029;52.956;4.772;2023-06-14T01:52:22;101796.09;;;19.80;100.00
55490;BME280;44029;52.956;4.772;2023-06-14T01:54:49;101801.69;;;19.75;100.00
55490;BME280;44029;52.956;4.772;2023-06-14T01:57:15;101797.03;;;19.60;100.00
55490;BME280;44029;52.956;4.772;2023-06-14T01:59:40;101799.75;;;19.70;100.00
55490;BME280;44029;52.956;4.772;2023-06-14T02:02:05;101801.22;;;19.57;100.00
55490;BME280;44029;52.956;4.772;2023-06-14T02:04:31;101801.16;;;19.67;100.00
55490;BME280;44029;52.956;4.772;2023-06-14T02:06:56;101790.91;;;19.63;100.00
55490;BME280;44029;52.956;4.772;2023-06-14T02:09:21;101794.38;;;19.39;100.00
55490;BME280;44029;52.956;4.772;2023-06-14T02:11:47;101809.41;;;19.38;100.00
55490;BME280;44029;52.956;4.772;2023-06-14T02:14:12;101798.13;;;19.64;100.00
55490;BME280;44029;52.956;4.772;2023-06-14T02:16:38;101800.22;;;19.38;100.00
55490;BME280;44029;52.956;4.772;2023-06-14T02:19:04;101800.94;;;19.59;100.00
55490;BME280;44029;52.956;4.772;2023-06-14T02:21:30;101800.94;;;19.59;100.00
55490;BME280;44029;52.956;4.772;2023-06-14T02:23:55;101805.50;;;19.39;100.00
55490;BME280;44029;52.956;4.772;2023-06-14T02:26:21;101818.28;;;19.35;100.00
55490;BME280;44029;52.956;4.772;2023-06-14T02:28:47;101800.53;;;19.31;100.00
55490;BME280;44029;52.956;4.772;2023-06-14T02:31:13;101816.34;;;19.36;100.00
55490;BME280;44029;52.956;4.772;2023-06-14T02:33:38;101802.44;;;19.36;100.00
55490;BME280;44029;52.956;4.772;2023-06-14T02:36:04;101809.69;;;19.37;100.00
55490;BME280;44029;52.956;4.772;2023-06-14T02:38:29;101805.78;;;19.38;100.00
55490;BME280;44029;52.956;4.772;2023-06-14T02:40:54;101813.03;;;19.28;100.00
55490;BME280;44029;52.956;4.772;2023-06-14T02:43:20;101806.47;;;19.09;100.00
55490;BME280;44029;52.956;4.772;2023-06-14T02:45:45;101822.50;;;19.27;100.00
55490;BME280;44029;52.956;4.772;2023-06-14T02:48:10;101813.66;;;19.15;100.00
55490;BME280;44029;52.956;4.772;2023-06-14T02:50:36;101815.63;;;19.15;100.00
55490;BME280;44029;52.956;4.772;2023-06-14T02:53:01;101809.25;;;19.09;100.00
55490;BME280;44029;52.956;4.772;2023-06-14T02:55:28;101822.50;;;19.27;100.00
55490;BME280;44029;52.956;4.772;2023-06-14T02:57:53;101807.00;;;19.16;100.00
55490;BME280;44029;52.956;4.772;2023-06-14T03:00:19;101816.97;;;19.22;100.00
55490;BME280;44029;52.956;4.772;2023-06-14T03:02:44;101823.28;;;19.43;100.00
55490;BME280;44029;52.956;4.772;2023-06-14T03:05:10;101809.78;;;19.21;100.00
55490;BME280;44029;52.956;4.772;2023-06-14T03:07:36;101823.69;;;19.06;100.00
55490;BME280;44029;52.956;4.772;2023-06-14T03:10:07;101824.41;;;19.37;100.00
55490;BME280;44029;52.956;4.772;2023-06-14T03:12:34;101823.41;;;19.07;100.00
55490;BME280;44029;52.956;4.772;2023-06-14T03:15:00;101824.28;;;19.03;100.00
55490;BME280;44029;52.956;4.772;2023-06-14T03:17:29;101817.06;;;19.02;100.00
55490;BME280;44029;52.956;4.772;2023-06-14T03:19:59;101825.38;;;19.07;100.00
55490;BME280;44029;52.956;4.772;2023-06-14T03:22:24;101833.50;;;18.88;100.00
55490;BME280;44029;52.956;4.772;2023-06-14T03:24:51;101830.09;;;19.06;100.00
55490;BME280;44029;52.956;4.772;2023-06-14T03:27:17;101845.91;;;19.16;100.00
55490;BME280;44029;52.956;4.772;2023-06-14T03:29:43;101841.03;;;19.47;100.00
55490;BME280;44029;52.956;4.772;2023-06-14T03:32:09;101843.56;;;19.39;100.00
55490;BME280;44029;52.956;4.772;2023-06-14T03:34:34;101844.53;;;19.63;100.00
55490;BME280;44029;52.956;4.772;2023-06-14T03:37:00;101851.78;;;20.09;100.00
55490;BME280;44029;52.956;4.772;2023-06-14T03:39:25;101847.19;;;20.28;100.00
55490;BME280;44029;52.956;4.772;2023-06-14T03:41:51;101855.13;;;20.40;100.00
55490;BME280;44029;52.956;4.772;2023-06-14T03:44:17;101851.22;;;20.12;100.00
55490;BME280;44029;52.956;4.772;2023-06-14T03:46:44;101845.00;;;20.55;100.00
55490;BME280;44029;52.956;4.772;2023-06-14T03:49:10;101856.31;;;20.63;100.00
55490;BME280;44029;52.956;4.772;2023-06-14T03:51:36;101851.66;;;20.54;100.00
55490;BME280;44029;52.956;4.772;2023-06-14T03:54:02;101844.69;;;21.10;100.00
55490;BME280;44029;52.956;4.772;2023-06-14T03:56:27;101847.81;;;21.27;100.00
55490;BME280;44029;52.956;4.772;2023-06-14T03:58:52;101848.06;;;21.55;100.00
55490;BME280;44029;52.956;4.772;2023-06-14T04:01:18;101851.56;;;21.98;100.00
55490;BME280;44029;52.956;4.772;2023-06-14T04:03:43;101850.72;;;22.17;100.00
55490;BME280;44029;52.956;4.772;2023-06-14T04:06:08;101855.09;;;22.04;100.00
55490;BME280;44029;52.956;4.772;2023-06-14T04:08:34;101854.75;;;21.92;100.00
55490;BME280;44029;52.956;4.772;2023-06-14T04:11:00;101860.00;;;22.78;100.00
55490;BME280;44029;52.956;4.772;2023-06-14T04:13:26;101853.38;;;22.74;100.00
55490;BME280;44029;52.956;4.772;2023-06-14T04:15:51;101871.03;;;23.16;100.00
55490;BME280;44029;52.956;4.772;2023-06-14T04:18:16;101867.06;;;23.45;100.00
55490;BME280;44029;52.956;4.772;2023-06-14T04:20:43;101867.41;;;23.43;100.00
55490;BME280;44029;52.956;4.772;2023-06-14T04:23:14;101864.41;;;23.26;100.00
55490;BME280;44029;52.956;4.772;2023-06-14T04:25:40;101876.66;;;22.83;100.00
55490;BME280;44029;52.956;4.772;2023-06-14T04:28:13;101872.94;;;22.08;100.00
55490;BME280;44029;52.956;4.772;2023-06-14T04:30:41;101881.66;;;22.01;100.00
55490;BME280;44029;52.956;4.772;2023-06-14T04:33:06;101877.38;;;21.71;100.00
55490;BME280;44029;52.956;4.772;2023-06-14T04:35:32;101884.69;;;21.43;100.00
55490;BME280;44029;52.956;4.772;2023-06-14T04:37:58;101880.25;;;21.18;100.00
55490;BME280;44029;52.956;4.772;2023-06-14T04:40:24;101892.03;;;21.34;100.00
55490;BME280;44029;52.956;4.772;2023-06-14T04:42:49;101889.16;;;21.20;100.00
55490;BME280;44029;52.956;4.772;2023-06-14T04:45:16;101896.50;;;21.11;100.00
55490;BME280;44029;52.956;4.772;2023-06-14T04:47:42;101902.88;;;20.87;100.00
55490;BME280;44029;52.956;4.772;2023-06-14T04:50:08;101902.06;;;21.11;100.00
55490;BME280;44029;52.956;4.772;2023-06-14T04:52:35;101900.53;;;20.99;100.00
55490;BME280;44029;52.956;4.772;2023-06-14T04:55:00;101906.03;;;20.80;100.00
55490;BME280;44029;52.956;4.772;2023-06-14T04:57:27;101907.13;;;20.79;100.00
55490;BME280;44029;52.956;4.772;2023-06-14T04:59:52;101907.44;;;20.78;100.00
55490;BME280;44029;52.956;4.772;2023-06-14T05:02:24;101901.38;;;21.24;100.00
55490;BME280;44029;52.956;4.772;2023-06-14T05:04:50;101910.69;;;20.51;100.00
55490;BME280;44029;52.956;4.772;2023-06-14T05:07:16;101912.41;;;20.81;100.00
55490;BME280;44029;52.956;4.772;2023-06-14T05:09:41;101899.97;;;21.02;100.00
55490;BME280;44029;52.956;4.772;2023-06-14T05:12:07;101905.53;;;21.27;100.00
55490;BME280;44029;52.956;4.772;2023-06-14T05:14:35;101899.59;;;21.33;100.00
55490;BME280;44029;52.956;4.772;2023-06-14T05:17:01;101902.84;;;21.65;100.00
55490;BME280;44029;52.956;4.772;2023-06-14T05:19:27;101900.03;;;21.46;100.00
55490;BME280;44029;52.956;4.772;2023-06-14T05:21:53;101897.03;;;21.37;100.00
55490;BME280;44029;52.956;4.772;2023-06-14T05:24:18;101898.81;;;21.28;100.00
55490;BME280;44029;52.956;4.772;2023-06-14T05:26:44;101901.91;;;21.26;100.00
55490;BME280;44029;52.956;4.772;2023-06-14T05:29:09;101903.38;;;21.42;100.00
55490;BME280;44029;52.956;4.772;2023-06-14T05:31:34;101909.47;;;20.96;100.00
55490;BME280;44029;52.956;4.772;2023-06-14T05:34:00;101903.31;;;20.70;100.00
55490;BME280;44029;52.956;4.772;2023-06-14T05:36:25;101909.28;;;20.88;100.00
55490;BME280;44029;52.956;4.772;2023-06-14T05:38:53;101897.75;;;21.23;100.00
55490;BME280;44029;52.956;4.772;2023-06-14T05:41:25;101898.72;;;21.38;100.00
55490;BME280;44029;52.956;4.772;2023-06-14T05:43:51;101899.53;;;21.38;100.00
55490;BME280;44029;52.956;4.772;2023-06-14T05:46:16;101895.16;;;21.32;100.00
55490;BME280;44029;52.956;4.772;2023-06-14T05:48:47;101898.72;;;21.14;100.00
55490;BME280;44029;52.956;4.772;2023-06-14T05:51:12;101902.91;;;21.59;100.00
55490;BME280;44029;52.956;4.772;2023-06-14T05:53:37;101899.84;;;22.18;100.00
55490;BME280;44029;52.956;4.772;2023-06-14T05:56:03;101897.78;;;22.89;100.00
55490;BME280;44029;52.956;4.772;2023-06-14T05:58:28;101898.63;;;23.73;100.00
55490;BME280;44029;52.956;4.772;2023-06-14T06:00:53;101897.34;;;24.83;100.00
55490;BME280;44029;52.956;4.772;2023-06-14T06:03:19;101915.22;;;24.96;100.00
55490;BME280;44029;52.956;4.772;2023-06-14T06:05:44;101916.94;;;25.46;100.00
55490;BME280;44029;52.956;4.772;2023-06-14T06:08:09;101915.66;;;24.81;100.00
55490;BME280;44029;52.956;4.772;2023-06-14T06:10:35;101922.88;;;25.36;100.00
55490;BME280;44029;52.956;4.772;2023-06-14T06:13:01;101923.31;;;26.04;100.00
55490;BME280;44029;52.956;4.772;2023-06-14T06:15:26;101915.75;;;26.04;100.00
55490;BME280;44029;52.956;4.772;2023-06-14T06:17:51;101920.16;;;25.88;100.00
55490;BME280;44029;52.956;4.772;2023-06-14T06:20:17;101918.53;;;26.22;100.00
55490;BME280;44029;52.956;4.772;2023-06-14T06:22:42;101912.38;;;27.19;100.00
55490;BME280;44029;52.956;4.772;2023-06-14T06:25:08;101920.97;;;25.80;100.00
55490;BME280;44029;52.956;4.772;2023-06-14T06:27:33;101925.72;;;26.93;100.00
55490;BME280;44029;52.956;4.772;2023-06-14T06:29:59;101932.84;;;25.85;100.00
55490;BME280;44029;52.956;4.772;2023-06-14T06:32:24;101917.84;;;27.25;100.00
55490;BME280;44029;52.956;4.772;2023-06-14T06:34:50;101925.13;;;26.78;98.74
55490;BME280;44029;52.956;4.772;2023-06-14T06:37:15;101932.75;;;26.17;100.00
55490;BME280;44029;52.956;4.772;2023-06-14T06:39:41;101941.03;;;26.04;100.00
55490;BME280;44029;52.956;4.772;2023-06-14T06:42:06;101939.03;;;26.40;98.23
55490;BME280;44029;52.956;4.772;2023-06-14T06:44:32;101941.50;;;25.40;100.00
55490;BME280;44029;52.956;4.772;2023-06-14T06:46:58;101934.91;;;26.11;100.00
55490;BME280;44029;52.956;4.772;2023-06-14T06:49:23;101943.03;;;25.55;100.00
55490;BME280;44029;52.956;4.772;2023-06-14T06:52:08;101943.19;;;24.79;100.00
55490;BME280;44029;52.956;4.772;2023-06-14T06:54:34;101935.00;;;24.23;100.00
55490;BME280;44029;52.956;4.772;2023-06-14T06:57:00;101944.06;;;25.19;100.00
55490;BME280;44029;52.956;4.772;2023-06-14T06:59:27;101947.28;;;26.01;100.00
55490;BME280;44029;52.956;4.772;2023-06-14T07:01:52;101949.22;;;25.83;100.00
55490;BME280;44029;52.956;4.772;2023-06-14T07:04:17;101942.66;;;26.75;100.00
55490;BME280;44029;52.956;4.772;2023-06-14T07:06:43;101938.91;;;27.48;97.84
55490;BME280;44029;52.956;4.772;2023-06-14T07:09:09;101942.16;;;27.20;95.67
55490;BME280;44029;52.956;4.772;2023-06-14T07:11:42;101941.56;;;27.06;99.77
55490;BME280;44029;52.956;4.772;2023-06-14T07:14:07;101943.28;;;27.67;100.00
55490;BME280;44029;52.956;4.772;2023-06-14T07:16:33;101935.25;;;26.62;99.26
55490;BME280;44029;52.956;4.772;2023-06-14T07:18:58;101951.94;;;26.32;100.00
55490;BME280;44029;52.956;4.772;2023-06-14T07:21:24;101943.34;;;27.28;97.22
55490;BME280;44029;52.956;4.772;2023-06-14T07:23:51;101947.09;;;26.85;99.06
55490;BME280;44029;52.956;4.772;2023-06-14T07:26:16;101954.81;;;25.83;100.00
55490;BME280;44029;52.956;4.772;2023-06-14T07:28:42;101956.06;;;25.51;100.00
55490;BME280;44029;52.956;4.772;2023-06-14T07:31:10;101951.25;;;26.53;100.00
55490;BME280;44029;52.956;4.772;2023-06-14T07:33:35;101959.19;;;26.77;100.00
55490;BME280;44029;52.956;4.772;2023-06-14T07:36:01;101938.88;;;27.18;99.23
55490;BME280;44029;52.956;4.772;2023-06-14T07:38:26;101942.69;;;27.14;93.63
55490;BME280;44029;52.956;4.772;2023-06-14T07:40:52;101963.59;;;26.95;98.98
55490;BME280;44029;52.956;4.772;2023-06-14T07:43:17;101962.59;;;25.87;100.00
55490;BME280;44029;52.956;4.772;2023-06-14T07:45:42;101964.19;;;25.21;100.00
55490;BME280;44029;52.956;4.772;2023-06-14T07:48:09;101969.69;;;25.26;100.00
55490;BME280;44029;52.956;4.772;2023-06-14T07:50:34;101970.56;;;24.59;100.00
55490;BME280;44029;52.956;4.772;2023-06-14T07:53:00;101971.22;;;24.42;100.00
55490;BME280;44029;52.956;4.772;2023-06-14T07:55:25;101975.41;;;24.90;100.00
55490;BME280;44029;52.956;4.772;2023-06-14T07:57:51;101978.13;;;25.35;100.00
55490;BME280;44029;52.956;4.772;2023-06-14T08:00:18;101986.16;;;25.68;100.00
55490;BME280;44029;52.956;4.772;2023-06-14T08:02:44;101979.69;;;26.25;100.00
55490;BME280;44029;52.956;4.772;2023-06-14T08:05:10;101982.00;;;26.23;100.00
55490;BME280;44029;52.956;4.772;2023-06-14T08:07:36;101977.41;;;26.62;100.00
55490;BME280;44029;52.956;4.772;2023-06-14T08:10:02;101984.66;;;26.28;100.00
55490;BME280;44029;52.956;4.772;2023-06-14T08:12:28;101973.44;;;26.28;100.00
55490;BME280;44029;52.956;4.772;2023-06-14T08:14:53;101977.72;;;26.26;99.72
55490;BME280;44029;52.956;4.772;2023-06-14T08:17:18;101984.97;;;26.00;99.81
55490;BME280;44029;52.956;4.772;2023-06-14T08:19:44;101987.38;;;25.84;100.00
55490;BME280;44029;52.956;4.772;2023-06-14T08:22:09;101991.75;;;26.52;100.00
55490;BME280;44029;52.956;4.772;2023-06-14T08:24:36;101989.47;;;26.71;100.00
55490;BME280;44029;52.956;4.772;2023-06-14T08:27:02;101986.78;;;26.31;100.00
55490;BME280;44029;52.956;4.772;2023-06-14T08:29:27;101994.91;;;26.68;100.00
55490;BME280;44029;52.956;4.772;2023-06-14T08:31:55;101994.53;;;25.51;99.62
55490;BME280;44029;52.956;4.772;2023-06-14T08:34:20;101993.91;;;26.90;97.50
55490;BME280;44029;52.956;4.772;2023-06-14T08:36:46;101992.25;;;26.19;100.00
55490;BME280;44029;52.956;4.772;2023-06-14T08:39:11;101991.91;;;26.55;100.00
55490;BME280;44029;52.956;4.772;2023-06-14T08:41:37;101988.94;;;26.17;100.00
55490;BME280;44029;52.956;4.772;2023-06-14T08:44:02;101983.53;;;27.29;98.92
55490;BME280;44029;52.956;4.772;2023-06-14T08:46:32;101987.81;;;27.35;94.21
55490;BME280;44029;52.956;4.772;2023-06-14T08:48:59;101985.78;;;26.88;93.24
55490;BME280;44029;52.956;4.772;2023-06-14T08:51:26;101984.84;;;27.70;91.49
55490;BME280;44029;52.956;4.772;2023-06-14T08:53:59;101987.00;;;27.17;93.50
55490;BME280;44029;52.956;4.772;2023-06-14T08:56:27;101976.91;;;27.33;94.64
55490;BME280;44029;52.956;4.772;2023-06-14T08:58:55;101979.84;;;27.37;92.61
55490;BME280;44029;52.956;4.772;2023-06-14T09:01:21;101980.06;;;28.21;89.61
55490;BME280;44029;52.956;4.772;2023-06-14T09:03:49;101979.88;;;27.67;90.92
55490;BME280;44029;52.956;4.772;2023-06-14T09:06:14;101983.28;;;27.04;90.09
55490;BME280;44029;52.956;4.772;2023-06-14T09:08:42;101973.69;;;27.52;82.73
55490;BME280;44029;52.956;4.772;2023-06-14T09:11:10;101986.75;;;27.48;80.34
55490;BME280;44029;52.956;4.772;2023-06-14T09:13:36;101978.59;;;27.85;70.99
55490;BME280;44029;52.956;4.772;2023-06-14T09:16:01;101979.91;;;28.39;68.62
55490;BME280;44029;52.956;4.772;2023-06-14T09:18:41;101988.25;;;28.89;62.97
55490;BME280;44029;52.956;4.772;2023-06-14T09:21:09;101983.06;;;28.37;64.62
55490;BME280;44029;52.956;4.772;2023-06-14T09:23:40;101995.53;;;26.99;65.86
55490;BME280;44029;52.956;4.772;2023-06-14T09:26:13;101982.97;;;26.97;74.75
55490;BME280;44029;52.956;4.772;2023-06-14T09:28:46;101992.31;;;27.18;74.94
55490;BME280;44029;52.956;4.772;2023-06-14T09:31:16;102004.09;;;25.98;74.57
55490;BME280;44029;52.956;4.772;2023-06-14T09:33:49;101996.16;;;25.92;80.30
55490;BME280;44029;52.956;4.772;2023-06-14T09:36:21;102000.38;;;25.72;78.81
55490;BME280;44029;52.956;4.772;2023-06-14T09:38:58;102001.53;;;26.54;84.37
55490;BME280;44029;52.956;4.772;2023-06-14T09:41:38;102001.56;;;25.79;83.00
55490;BME280;44029;52.956;4.772;2023-06-14T09:44:04;102002.09;;;25.90;78.37
55490;BME280;44029;52.956;4.772;2023-06-14T09:46:31;101995.13;;;25.30;80.09
55490;BME280;44029;52.956;4.772;2023-06-14T09:48:57;102001.72;;;25.83;82.74
55490;BME280;44029;52.956;4.772;2023-06-14T09:51:23;101997.28;;;25.91;82.31
55490;BME280;44029;52.956;4.772;2023-06-14T09:53:49;102009.34;;;25.82;82.63
55490;BME280;44029;52.956;4.772;2023-06-14T09:56:36;102004.97;;;26.51;82.09
55490;BME280;44029;52.956;4.772;2023-06-14T09:59:04;102006.28;;;26.10;82.90
55490;BME280;44029;52.956;4.772;2023-06-14T10:01:31;102011.03;;;25.92;84.89
55490;BME280;44029;52.956;4.772;2023-06-14T10:04:15;102008.13;;;26.50;84.71
55490;BME280;44029;52.956;4.772;2023-06-14T10:06:45;102009.72;;;25.98;91.82
55490;BME280;44029;52.956;4.772;2023-06-14T10:09:12;101997.19;;;26.22;84.80
55490;BME280;44029;52.956;4.772;2023-06-14T10:11:38;102009.50;;;25.86;87.87
55490;BME280;44029;52.956;4.772;2023-06-14T10:14:09;101998.53;;;26.33;91.57
55490;BME280;44029;52.956;4.772;2023-06-14T10:19:24;102015.03;;;26.09;97.40
55490;BME280;44029;52.956;4.772;2023-06-14T10:24:45;102016.34;;;26.02;93.38
55490;BME280;44029;52.956;4.772;2023-06-14T10:27:14;102009.34;;;25.82;91.44
55490;BME280;44029;52.956;4.772;2023-06-14T10:32:23;102004.34;;;26.28;83.50
55490;BME280;44029;52.956;4.772;2023-06-14T10:34:57;102011.16;;;25.78;74.36
55490;BME280;44029;52.956;4.772;2023-06-14T10:37:23;102010.81;;;25.89;76.82
55490;BME280;44029;52.956;4.772;2023-06-14T10:39:50;102011.53;;;25.94;77.31
55490;BME280;44029;52.956;4.772;2023-06-14T10:42:15;102012.19;;;25.51;83.73
55490;BME280;44029;52.956;4.772;2023-06-14T10:44:51;102005.47;;;26.10;77.47
55490;BME280;44029;52.956;4.772;2023-06-14T10:49:51;102012.50;;;25.90;72.72
55490;BME280;44029;52.956;4.772;2023-06-14T10:52:21;102027.47;;;26.34;78.21
55490;BME280;44029;52.956;4.772;2023-06-14T10:55:05;102026.34;;;25.86;73.16
55490;BME280;44029;52.956;4.772;2023-06-14T10:57:33;102014.56;;;26.41;75.20
55490;BME280;44029;52.956;4.772;2023-06-14T10:59:59;102020.00;;;26.29;71.98
55490;BME280;44029;52.956;4.772;2023-06-14T11:04:51;102022.13;;;26.06;77.65
55490;BME280;44029;52.956;4.772;2023-06-14T11:13:00;102020.50;;;25.25;84.62
55490;BME280;44029;52.956;4.772;2023-06-14T11:15:32;102014.78;;;25.39;93.56
55490;BME280;44029;52.956;4.772;2023-06-14T11:18:04;102023.59;;;25.55;91.10
55490;BME280;44029;52.956;4.772;2023-06-14T11:20:32;102013.00;;;25.20;90.17
55490;BME280;44029;52.956;4.772;2023-06-14T11:22:58;102021.34;;;24.80;89.45
55490;BME280;44029;52.956;4.772;2023-06-14T11:25:24;102017.66;;;25.56;95.92
55490;BME280;44029;52.956;4.772;2023-06-14T11:27:50;102015.56;;;25.31;93.13
55490;BME280;44029;52.956;4.772;2023-06-14T11:30:15;102015.38;;;25.58;92.95
55490;BME280;44029;52.956;4.772;2023-06-14T11:32:41;102010.38;;;25.55;98.33
55490;BME280;44029;52.956;4.772;2023-06-14T11:35:08;102014.69;;;25.53;100.00
55490;BME280;44029;52.956;4.772;2023-06-14T11:37:36;102013.06;;;25.60;100.00
55490;BME280;44029;52.956;4.772;2023-06-14T11:40:06;102010.28;;;25.29;98.18
55490;BME280;44029;52.956;4.772;2023-06-14T11:42:35;102005.72;;;25.42;100.00
55490;BME280;44029;52.956;4.772;2023-06-14T11:45:02;102005.88;;;25.14;100.00
55490;BME280;44029;52.956;4.772;2023-06-14T11:47:32;102001.47;;;25.53;100.00
55490;BME280;44029;52.956;4.772;2023-06-14T11:49:59;102005.22;;;25.40;99.69
55490;BME280;44029;52.956;4.772;2023-06-14T11:52:24;102003.16;;;25.63;99.48
55490;BME280;44029;52.956;4.772;2023-06-14T11:54:50;102011.25;;;25.64;100.00
55490;BME280;44029;52.956;4.772;2023-06-14T11:57:18;102014.19;;;25.59;100.00
55490;BME280;44029;52.956;4.772;2023-06-14T11:59:43;102004.59;;;25.52;100.00
55490;BME280;44029;52.956;4.772;2023-06-14T12:02:09;102007.41;;;25.52;100.00
55490;BME280;44029;52.956;4.772;2023-06-14T12:04:43;102007.34;;;25.34;100.00
55490;BME280;44029;52.956;4.772;2023-06-14T12:07:10;102004.41;;;25.39;100.00
55490;BME280;44029;52.956;4.772;2023-06-14T12:12:30;101995.53;;;25.55;100.00
55490;BME280;44029;52.956;4.772;2023-06-14T12:14:56;102003.63;;;25.56;100.00
55490;BME280;44029;52.956;4.772;2023-06-14T12:17:22;101999.78;;;25.43;100.00
55490;BME280;44029;52.956;4.772;2023-06-14T12:19:48;102005.00;;;25.68;100.00
55490;BME280;44029;52.956;4.772;2023-06-14T12:22:14;102009.34;;;25.42;100.00
55490;BME280;44029;52.956;4.772;2023-06-14T12:24:42;102002.38;;;25.71;100.00
55490;BME280;44029;52.956;4.772;2023-06-14T12:27:08;102000.84;;;25.56;100.00
55490;BME280;44029;52.956;4.772;2023-06-14T12:29:34;101997.34;;;25.51;100.00
55490;BME280;44029;52.956;4.772;2023-06-14T12:32:00;102002.59;;;25.52;100.00
55490;BME280;44029;52.956;4.772;2023-06-14T12:34:26;102009.88;;;25.53;100.00
55490;BME280;44029;52.956;4.772;2023-06-14T12:36:53;102003.53;;;25.79;100.00
55490;BME280;44029;52.956;4.772;2023-06-14T12:39:19;101999.81;;;25.52;100.00
55490;BME280;44029;52.956;4.772;2023-06-14T12:41:44;102000.19;;;24.97;100.00
55490;BME280;44029;52.956;4.772;2023-06-14T12:44:11;102004.59;;;25.20;100.00
55490;BME280;44029;52.956;4.772;2023-06-14T12:46:36;102006.41;;;25.48;100.00
55490;BME280;44029;52.956;4.772;2023-06-14T12:49:02;101997.53;;;25.63;100.00
55490;BME280;44029;52.956;4.772;2023-06-14T12:51:28;102004.03;;;25.81;98.51
55490;BME280;44029;52.956;4.772;2023-06-14T12:53:53;102004.84;;;25.73;99.17
55490;BME280;44029;52.956;4.772;2023-06-14T12:56:19;102010.06;;;25.57;100.00
55490;BME280;44029;52.956;4.772;2023-06-14T12:58:45;101999.44;;;25.36;100.00
55490;BME280;44029;52.956;4.772;2023-06-14T13:01:10;101999.69;;;25.26;100.00
55490;BME280;44029;52.956;4.772;2023-06-14T13:03:35;102012.84;;;25.48;100.00
55490;BME280;44029;52.956;4.772;2023-06-14T13:06:01;101997.22;;;25.24;100.00
55490;BME280;44029;52.956;4.772;2023-06-14T13:08:28;101997.25;;;25.33;100.00